createdAt,value
2022-09-28T00:01:19.287Z,98.40
2022-09-28T00:03:50.753Z,98.30
2022-09-28T00:06:23.595Z,98.30
2022-09-28T00:08:52.335Z,98.30
2022-09-28T00:11:21.860Z,98.30
2022-09-28T00:13:52.601Z,98.30
2022-09-28T00:16:23.965Z,98.30
2022-09-28T00:18:54.823Z,98.30
2022-09-28T00:21:26.242Z,98.30
2022-09-28T00:24:12.699Z,98.20
2022-09-28T00:26:43.707Z,98.20
2022-09-28T00:29:21.276Z,98.20
2022-09-28T00:31:50.512Z,98.20
2022-09-28T00:34:20.547Z,98.50
2022-09-28T00:36:49.514Z,98.40
2022-09-28T00:39:18.698Z,98.30
2022-09-28T00:41:47.505Z,98.20
2022-09-28T00:44:52.109Z,98.10
2022-09-28T00:47:28.502Z,98.10
2022-09-28T00:50:02.662Z,98.00
2022-09-28T00:52:35.637Z,97.90
2022-09-28T00:55:06.942Z,98.00
2022-09-28T00:57:37.066Z,98.00
2022-09-28T01:00:06.914Z,98.00
2022-09-28T01:02:35.246Z,98.00
2022-09-28T01:05:06.546Z,98.10
2022-09-28T01:07:35.907Z,98.20
2022-09-28T01:10:04.817Z,98.20
2022-09-28T01:12:33.078Z,98.10
2022-09-28T01:15:02.330Z,98.10
2022-09-28T01:17:39.937Z,98.10
2022-09-28T01:20:44.343Z,98.20
2022-09-28T01:23:48.902Z,98.20
2022-09-28T01:26:44.165Z,98.10
2022-09-28T01:29:23.419Z,98.10
2022-09-28T01:31:57.827Z,98.10
2022-09-28T01:34:32.467Z,98.10
2022-09-28T01:37:05.560Z,98.10
2022-09-28T01:39:38.487Z,98.10
2022-09-28T01:42:15.730Z,98.20
2022-09-28T01:44:47.086Z,98.10
2022-09-28T01:47:19.137Z,98.20
2022-09-28T01:49:51.497Z,98.20
2022-09-28T01:52:24.324Z,98.20
2022-09-28T01:54:58.229Z,98.10
2022-09-28T01:57:33.053Z,98.10
2022-09-28T02:00:05.546Z,98.10
2022-09-28T02:02:37.486Z,98.10
2022-09-28T02:05:10.158Z,97.90
2022-09-28T02:07:43.721Z,97.90
2022-09-28T02:10:16.621Z,97.90
2022-09-28T02:12:49.950Z,98.20
2022-09-28T02:15:21.704Z,97.80
2022-09-28T02:17:50.546Z,97.80
2022-09-28T02:20:19.581Z,97.70
2022-09-28T02:22:51.650Z,97.70
2022-09-28T02:25:27.569Z,97.60
2022-09-28T02:28:01.176Z,97.60
2022-09-28T02:30:31.289Z,97.60
2022-09-28T02:33:04.656Z,97.60
2022-09-28T02:35:35.128Z,97.50
2022-09-28T02:38:03.418Z,97.50
2022-09-28T02:40:34.586Z,97.40
2022-09-28T02:43:14.309Z,97.40
2022-09-28T02:45:57.732Z,97.50
2022-09-28T02:48:43.983Z,97.50
2022-09-28T02:51:23.055Z,97.50
2022-09-28T02:54:24.284Z,97.40
2022-09-28T02:57:03.678Z,97.40
2022-09-28T02:59:47.762Z,97.40
2022-09-28T03:02:26.984Z,97.40
2022-09-28T03:05:08.986Z,97.40
2022-09-28T03:07:41.522Z,97.40
2022-09-28T03:10:17.870Z,97.30
2022-09-28T03:12:48.486Z,97.30
2022-09-28T03:15:22.507Z,97.30
2022-09-28T03:17:50.769Z,97.30
2022-09-28T03:20:19.302Z,97.20
2022-09-28T03:23:00.471Z,97.30
2022-09-28T03:25:35.887Z,97.30
2022-09-28T03:28:04.101Z,97.30
2022-09-28T03:30:33.712Z,97.30
2022-09-28T03:33:03.307Z,97.50
2022-09-28T03:35:31.586Z,97.50
2022-09-28T03:37:59.850Z,97.50
2022-09-28T03:40:28.271Z,97.40
2022-09-28T03:42:56.672Z,97.40
2022-09-28T03:45:25.058Z,97.40
2022-09-28T03:47:54.760Z,97.40
2022-09-28T03:50:23.052Z,97.40
2022-09-28T03:52:51.312Z,97.30
2022-09-28T03:55:19.614Z,97.30
2022-09-28T03:57:55.058Z,97.20
2022-09-28T04:00:23.944Z,97.20
2022-09-28T04:02:52.204Z,97.10
2022-09-28T04:05:21.957Z,97.10
2022-09-28T04:07:50.227Z,97.10
2022-09-28T04:10:18.515Z,97.20
2022-09-28T04:12:46.896Z,97.20
2022-09-28T04:15:15.223Z,97.30
2022-09-28T04:17:44.901Z,97.30
2022-09-28T04:20:13.131Z,97.40
2022-09-28T04:22:43.397Z,97.40
2022-09-28T04:25:13.792Z,97.50
2022-09-28T04:27:59.435Z,97.50
2022-09-28T04:30:27.766Z,97.90
2022-09-28T04:32:55.955Z,97.70
2022-09-28T04:35:24.211Z,97.70
2022-09-28T04:37:53.837Z,97.70
2022-09-28T04:40:22.099Z,97.80
2022-09-28T04:42:55.043Z,97.80
2022-09-28T04:45:23.639Z,97.80
2022-09-28T04:47:51.876Z,97.90
2022-09-28T04:50:20.141Z,97.80
2022-09-28T04:52:48.356Z,97.90
2022-09-28T04:55:18.094Z,97.90
2022-09-28T04:57:46.340Z,97.80
2022-09-28T05:00:15.717Z,97.90
2022-09-28T05:02:44.089Z,97.90
2022-09-28T05:05:12.494Z,97.90
2022-09-28T05:07:41.902Z,97.90
2022-09-28T05:10:10.461Z,97.90
2022-09-28T05:12:40.142Z,97.90
2022-09-28T05:15:08.953Z,98.00
2022-09-28T05:17:37.203Z,98.10
2022-09-28T05:20:06.138Z,98.20
2022-09-28T05:22:34.669Z,98.20
2022-09-28T05:25:03.565Z,98.40
2022-09-28T05:27:31.883Z,98.40
2022-09-28T05:30:01.553Z,98.50
2022-09-28T05:32:29.817Z,98.60
2022-09-28T05:35:01.173Z,98.80
2022-09-28T05:37:29.386Z,99.00
2022-09-28T05:39:57.708Z,99.20
2022-09-28T05:42:26.023Z,99.30
2022-09-28T05:44:54.310Z,99.60
2022-09-28T05:47:23.940Z,99.70
2022-09-28T05:49:52.593Z,99.80
2022-09-28T05:52:20.906Z,99.70
2022-09-28T05:54:49.797Z,99.90
2022-09-28T05:57:18.018Z,99.90
2022-09-28T05:59:46.346Z,99.90
2022-09-28T06:02:14.699Z,99.90
2022-09-28T06:04:44.700Z,99.90
2022-09-28T06:07:12.975Z,99.90
2022-09-28T06:09:41.167Z,99.90
2022-09-28T06:12:09.779Z,99.90
2022-09-28T06:14:38.996Z,99.90
2022-09-28T06:17:07.290Z,99.90
2022-09-28T06:19:35.751Z,99.90
2022-09-28T06:22:05.391Z,99.90
2022-09-28T06:24:33.702Z,99.90
2022-09-28T06:27:01.951Z,99.90
2022-09-28T06:29:30.252Z,99.90
2022-09-28T06:31:58.544Z,99.90
2022-09-28T06:34:26.753Z,99.90
2022-09-28T06:36:54.988Z,99.90
2022-09-28T06:39:24.747Z,99.90
2022-09-28T06:41:53.032Z,99.90
2022-09-28T06:44:21.473Z,99.90
2022-09-28T06:46:49.724Z,99.90
2022-09-28T06:49:19.599Z,99.90
2022-09-28T06:51:48.002Z,99.90
2022-09-28T06:54:16.246Z,99.90
2022-09-28T06:56:45.955Z,99.90
2022-09-28T06:59:14.282Z,99.90
2022-09-28T07:01:42.619Z,99.90
2022-09-28T07:04:10.949Z,99.90
2022-09-28T07:06:40.818Z,99.90
2022-09-28T07:09:27.261Z,99.90
2022-09-28T07:12:00.513Z,99.90
2022-09-28T07:14:46.249Z,99.80
2022-09-28T07:17:18.365Z,99.60
2022-09-28T07:19:46.674Z,99.40
2022-09-28T07:22:18.767Z,99.30
2022-09-28T07:24:48.952Z,99.10
2022-09-28T07:27:20.030Z,98.90
2022-09-28T07:29:48.296Z,98.80
2022-09-28T07:32:16.569Z,98.40
2022-09-28T07:34:44.783Z,98.10
2022-09-28T07:37:13.547Z,97.90
2022-09-28T07:39:59.420Z,98.00
2022-09-28T07:42:31.260Z,97.80
2022-09-28T07:45:00.090Z,97.20
2022-09-28T07:47:34.663Z,97.20
2022-09-28T07:50:03.559Z,97.20
2022-09-28T07:52:31.897Z,96.80
2022-09-28T07:55:04.552Z,96.70
2022-09-28T07:57:40.010Z,96.70
2022-09-28T08:00:09.307Z,96.70
2022-09-28T08:02:40.120Z,96.40
2022-09-28T08:05:10.116Z,96.30
2022-09-28T08:07:38.588Z,96.40
2022-09-28T08:10:07.802Z,95.90
2022-09-28T08:12:36.071Z,95.90
2022-09-28T08:15:07.557Z,95.80
2022-09-28T08:17:35.897Z,95.50
2022-09-28T08:20:21.824Z,95.50
2022-09-28T08:22:50.111Z,95.60
2022-09-28T08:25:18.377Z,95.50
2022-09-28T08:27:46.634Z,95.50
2022-09-28T08:30:16.408Z,95.40
2022-09-28T08:32:49.511Z,95.20
2022-09-28T08:35:17.794Z,95.10
2022-09-28T08:37:55.492Z,94.80
2022-09-28T08:40:26.254Z,94.50
2022-09-28T08:42:58.717Z,94.30
2022-09-28T08:45:31.627Z,94.20
2022-09-28T08:48:23.390Z,94.00
2022-09-28T08:51:00.948Z,94.00
2022-09-28T08:53:38.560Z,93.90
2022-09-28T08:56:20.682Z,93.20
2022-09-28T08:58:55.628Z,92.80
2022-09-28T09:01:28.604Z,92.90
2022-09-28T09:03:57.551Z,92.90
2022-09-28T09:06:34.447Z,92.50
2022-09-28T09:09:12.021Z,92.60
2022-09-28T09:11:54.989Z,92.50
2022-09-28T09:14:54.283Z,92.00
2022-09-28T09:17:36.429Z,91.90
2022-09-28T09:20:16.642Z,91.70
2022-09-28T09:22:59.983Z,91.70
2022-09-28T09:25:38.429Z,91.40
2022-09-28T09:28:42.105Z,91.20
2022-09-28T09:31:24.259Z,91.00
2022-09-28T09:34:27.028Z,91.10
2022-09-28T09:37:09.542Z,90.80
2022-09-28T09:39:48.606Z,90.60
2022-09-28T09:42:32.145Z,90.20
2022-09-28T09:45:13.494Z,89.70
2022-09-28T09:47:45.354Z,89.60
2022-09-28T09:50:30.106Z,89.10
2022-09-28T09:53:03.678Z,88.00
2022-09-28T09:55:35.390Z,87.40
2022-09-28T09:58:10.303Z,87.70
2022-09-28T10:00:42.450Z,87.80
2022-09-28T10:03:22.715Z,87.20
2022-09-28T10:05:59.351Z,86.80
2022-09-28T10:08:29.498Z,84.60
2022-09-28T10:11:08.800Z,85.00
2022-09-28T10:13:37.127Z,84.90
2022-09-28T10:16:07.365Z,84.40
2022-09-28T10:18:36.241Z,84.70
2022-09-28T10:21:06.310Z,84.70
2022-09-28T10:23:38.779Z,83.10
2022-09-28T10:26:13.486Z,83.10
2022-09-28T10:28:48.664Z,83.50
2022-09-28T10:31:40.344Z,83.80
2022-09-28T10:34:11.461Z,81.30
2022-09-28T10:36:49.501Z,83.00
2022-09-28T10:39:42.581Z,81.30
2022-09-28T10:42:13.427Z,80.00
2022-09-28T10:44:56.255Z,80.60
2022-09-28T10:47:26.894Z,79.20
2022-09-28T10:49:57.252Z,78.60
2022-09-28T10:52:35.525Z,77.50
2022-09-28T10:55:05.201Z,78.00
2022-09-28T10:57:36.752Z,78.60
2022-09-28T11:00:08.198Z,77.30
2022-09-28T11:02:38.068Z,76.10
2022-09-28T11:05:08.375Z,76.60
2022-09-28T11:07:47.461Z,76.10
2022-09-28T11:10:22.398Z,76.20
2022-09-28T11:12:51.917Z,74.60
2022-09-28T11:15:22.438Z,74.20
2022-09-28T11:17:51.152Z,72.50
2022-09-28T11:20:33.453Z,72.20
2022-09-28T11:23:18.816Z,72.50
2022-09-28T11:25:58.757Z,70.40
2022-09-28T11:28:32.821Z,69.40
2022-09-28T11:31:02.784Z,68.50
2022-09-28T11:33:34.051Z,67.40
2022-09-28T11:36:14.706Z,67.20
2022-09-28T11:38:57.985Z,67.50
2022-09-28T11:41:45.154Z,67.50
2022-09-28T11:44:46.490Z,67.00
2022-09-28T11:47:43.562Z,66.30
2022-09-28T11:50:24.352Z,66.00
2022-09-28T11:52:58.993Z,63.80
2022-09-28T11:55:36.146Z,64.10
2022-09-28T11:58:11.380Z,63.80
2022-09-28T12:00:44.865Z,64.70
2022-09-28T12:03:19.755Z,65.70
2022-09-28T12:05:53.079Z,65.80
2022-09-28T12:08:29.008Z,64.90
2022-09-28T12:11:02.895Z,63.40
2022-09-28T12:13:36.220Z,64.10
2022-09-28T12:17:00.935Z,63.20
2022-09-28T12:19:21.372Z,62.00
2022-09-28T12:21:53.934Z,62.20
2022-09-28T12:24:27.356Z,63.00
2022-09-28T12:27:04.432Z,63.50
2022-09-28T12:29:39.289Z,62.50
2022-09-28T12:32:15.452Z,62.70
2022-09-28T12:34:44.206Z,61.50
2022-09-28T12:37:33.588Z,62.50
2022-09-28T12:40:29.821Z,61.50
2022-09-28T12:43:13.990Z,60.20
2022-09-28T12:46:12.067Z,60.20
2022-09-28T12:49:51.574Z,60.50
2022-09-28T12:51:54.696Z,61.70
2022-09-28T12:54:53.909Z,62.70
2022-09-28T12:58:07.468Z,61.10
2022-09-28T13:00:43.412Z,61.00
2022-09-28T13:03:48.080Z,60.90
2022-09-28T13:06:31.044Z,59.40
2022-09-28T13:09:16.562Z,59.50
2022-09-28T13:11:54.565Z,60.30
2022-09-28T13:14:50.317Z,60.20
2022-09-28T13:17:30.887Z,59.80
2022-09-28T13:20:00.631Z,59.20
2022-09-28T13:22:42.179Z,59.50
2022-09-28T13:25:16.650Z,58.10
2022-09-28T13:27:49.355Z,58.20
2022-09-28T13:30:19.549Z,58.10
2022-09-28T13:32:51.073Z,58.30
2022-09-28T13:35:20.576Z,57.30
2022-09-28T13:37:49.532Z,57.00
2022-09-28T13:40:17.964Z,57.60
2022-09-28T13:43:06.511Z,57.10
2022-09-28T13:45:54.150Z,56.80
2022-09-28T13:48:35.783Z,56.90
2022-09-28T13:51:14.094Z,57.10
2022-09-28T13:54:20.031Z,57.60
2022-09-28T13:56:55.228Z,57.90
2022-09-28T13:59:27.120Z,58.30
2022-09-28T14:02:06.926Z,58.10
2022-09-28T14:04:58.822Z,58.40
2022-09-28T14:07:48.252Z,58.20
2022-09-28T14:10:22.147Z,58.30
2022-09-28T14:12:51.564Z,58.70
2022-09-28T14:15:43.840Z,58.90
2022-09-28T14:18:24.657Z,58.60
2022-09-28T14:21:05.675Z,58.50
2022-09-28T14:24:10.343Z,58.20
2022-09-28T14:27:13.614Z,58.40
2022-09-28T14:29:42.672Z,58.80
2022-09-28T14:32:24.915Z,58.60
2022-09-28T14:35:03.817Z,59.10
2022-09-28T14:37:52.238Z,59.20
2022-09-28T14:40:49.541Z,59.30
2022-09-28T14:43:26.300Z,58.50
2022-09-28T14:46:28.905Z,58.60
2022-09-28T14:49:01.792Z,58.50
2022-09-28T14:51:58.723Z,58.90
2022-09-28T14:54:28.670Z,59.10
2022-09-28T14:57:08.979Z,59.20
2022-09-28T14:59:46.242Z,59.40
2022-09-28T15:02:24.807Z,59.50
2022-09-28T15:04:56.354Z,59.50
2022-09-28T15:07:28.733Z,59.80
2022-09-28T15:09:58.320Z,60.80
2022-09-28T15:12:28.688Z,60.20
2022-09-28T15:15:02.278Z,60.60
2022-09-28T15:17:38.486Z,60.50
2022-09-28T15:20:25.339Z,60.50
2022-09-28T15:22:58.462Z,61.10
2022-09-28T15:25:28.625Z,61.30
2022-09-28T15:27:59.206Z,61.50
2022-09-28T15:30:31.940Z,61.70
2022-09-28T15:33:15.706Z,62.00
2022-09-28T15:35:46.095Z,62.30
2022-09-28T15:38:17.617Z,62.60
2022-09-28T15:40:47.622Z,62.80
2022-09-28T15:43:27.006Z,63.00
2022-09-28T15:46:05.911Z,63.20
2022-09-28T15:48:41.939Z,63.40
2022-09-28T15:51:12.005Z,63.70
2022-09-28T15:53:44.903Z,64.10
2022-09-28T15:56:13.665Z,64.30
2022-09-28T15:58:45.281Z,64.50
2022-09-28T16:01:39.882Z,64.80
2022-09-28T16:04:40.411Z,65.80
2022-09-28T16:07:38.512Z,65.20
2022-09-28T16:10:33.580Z,65.50
2022-09-28T16:13:25.719Z,65.70
2022-09-28T16:15:59.945Z,65.80
2022-09-28T16:18:33.819Z,66.10
2022-09-28T16:21:42.922Z,66.40
2022-09-28T16:24:24.145Z,66.60
2022-09-28T16:26:58.590Z,66.80
2022-09-28T16:29:29.399Z,67.20
2022-09-28T16:32:38.417Z,67.40
2022-09-28T16:35:19.797Z,67.70
2022-09-28T16:38:00.265Z,68.00
2022-09-28T16:40:29.765Z,68.30
2022-09-28T16:43:03.342Z,68.30
2022-09-28T16:45:31.777Z,68.60
2022-09-28T16:48:01.668Z,68.70
2022-09-28T16:50:31.483Z,69.00
2022-09-28T16:53:44.169Z,69.10
2022-09-28T16:56:13.707Z,69.20
2022-09-28T16:58:42.627Z,69.40
2022-09-28T17:01:13.873Z,69.60
2022-09-28T17:03:46.832Z,70.10
2022-09-28T17:06:17.421Z,70.50
2022-09-28T17:08:46.220Z,71.00
2022-09-28T17:11:20.418Z,71.30
2022-09-28T17:13:52.212Z,71.60
2022-09-28T17:16:42.633Z,71.70
2022-09-28T17:19:20.615Z,71.90
2022-09-28T17:21:51.715Z,72.20
2022-09-28T17:24:23.022Z,72.50
2022-09-28T17:26:52.862Z,72.60
2022-09-28T17:29:21.447Z,72.90
2022-09-28T17:31:49.783Z,73.10
2022-09-28T17:34:18.141Z,73.40
2022-09-28T17:36:46.730Z,73.70
2022-09-28T17:39:18.587Z,74.00
2022-09-28T17:41:47.328Z,74.20
2022-09-28T17:44:16.416Z,74.50
2022-09-28T17:46:48.828Z,74.70
2022-09-28T17:49:17.717Z,74.90
2022-09-28T17:51:46.240Z,74.90
2022-09-28T17:54:19.998Z,75.00
2022-09-28T17:56:48.546Z,75.10
2022-09-28T17:59:19.025Z,75.20
2022-09-28T18:01:48.357Z,75.30
2022-09-28T18:04:39.876Z,75.50
2022-09-28T18:07:06.101Z,75.60
2022-09-28T18:09:35.760Z,75.70
2022-09-28T18:12:06.483Z,75.90
2022-09-28T18:14:35.913Z,76.00
2022-09-28T18:17:04.528Z,76.10
2022-09-28T18:19:32.818Z,76.20
2022-09-28T18:22:01.416Z,76.50
2022-09-28T18:24:32.481Z,76.50
2022-09-28T18:27:02.226Z,76.80
2022-09-28T18:29:33.301Z,77.10
2022-09-28T18:32:02.610Z,77.30
2022-09-28T18:34:30.855Z,77.60
2022-09-28T18:36:59.143Z,77.80
2022-09-28T18:39:27.707Z,78.00
2022-09-28T18:41:56.001Z,78.10
2022-09-28T18:44:25.709Z,78.20
2022-09-28T18:46:54.574Z,78.40
2022-09-28T18:49:23.062Z,78.50
2022-09-28T18:51:51.384Z,78.60
2022-09-28T18:54:19.688Z,78.60
2022-09-28T18:56:47.977Z,78.70
2022-09-28T18:59:16.452Z,78.70
2022-09-28T19:01:46.190Z,78.90
2022-09-28T19:04:14.457Z,79.10
2022-09-28T19:06:46.367Z,79.30
2022-09-28T19:09:14.988Z,79.40
2022-09-28T19:11:43.389Z,79.60
2022-09-28T19:14:15.100Z,79.60
2022-09-28T19:16:45.979Z,79.60
2022-09-28T19:19:15.594Z,79.70
2022-09-28T19:21:44.416Z,80.20
2022-09-28T19:24:15.323Z,80.90
2022-09-28T19:26:44.336Z,81.30
2022-09-28T19:29:12.812Z,81.50
2022-09-28T19:31:41.713Z,81.30
2022-09-28T19:34:13.517Z,81.20
2022-09-28T19:36:42.998Z,81.80
2022-09-28T19:39:15.049Z,80.90
2022-09-28T19:41:49.416Z,80.90
2022-09-28T19:44:24.455Z,80.90
2022-09-28T19:46:57.337Z,80.80
2022-09-28T19:49:33.265Z,81.50
2022-09-28T19:52:13.472Z,80.60
2022-09-28T19:54:44.000Z,80.60
2022-09-28T19:57:16.071Z,80.70
2022-09-28T19:59:46.669Z,80.80
2022-09-28T20:02:17.862Z,80.90
2022-09-28T20:04:47.625Z,80.90
2022-09-28T20:07:18.669Z,81.00
2022-09-28T20:09:46.935Z,81.20
2022-09-28T20:12:15.167Z,81.30
2022-09-28T20:14:43.512Z,81.40
2022-09-28T20:17:11.786Z,81.40
2022-09-28T20:19:40.047Z,81.70
2022-09-28T20:22:09.730Z,81.80
2022-09-28T20:24:38.033Z,81.90
2022-09-28T20:27:06.809Z,81.90
2022-09-28T20:29:35.371Z,82.20
2022-09-28T20:32:04.337Z,82.50
2022-09-28T20:34:33.630Z,82.90
2022-09-28T20:37:02.452Z,82.70
2022-09-28T20:39:32.109Z,82.60
2022-09-28T20:42:00.399Z,82.70
2022-09-28T20:44:28.653Z,83.10
2022-09-28T20:46:57.374Z,84.10
2022-09-28T20:49:27.202Z,83.70
2022-09-28T20:51:55.593Z,83.60
2022-09-28T20:54:23.855Z,83.50
2022-09-28T20:56:53.732Z,83.30
2022-09-28T20:59:25.900Z,83.30
2022-09-28T21:01:54.537Z,83.30
2022-09-28T21:04:22.838Z,83.50
2022-09-28T21:06:51.094Z,83.40
2022-09-28T21:09:19.359Z,83.50
2022-09-28T21:11:48.174Z,84.30
2022-09-28T21:14:18.605Z,83.50
2022-09-28T21:16:46.856Z,83.60
2022-09-28T21:19:15.103Z,83.70
2022-09-28T21:21:43.371Z,83.80
2022-09-28T21:24:11.881Z,83.80
2022-09-28T21:26:40.120Z,83.70
2022-09-28T21:29:12.452Z,83.70
2022-09-28T21:31:45.706Z,83.80
2022-09-28T21:34:15.296Z,83.80
2022-09-28T21:36:44.199Z,83.80
2022-09-28T21:39:12.578Z,83.80
2022-09-28T21:41:41.415Z,83.80
2022-09-28T21:44:09.967Z,83.80
2022-09-28T21:46:39.453Z,83.80
2022-09-28T21:49:10.904Z,83.90
2022-09-28T21:51:39.194Z,84.00
2022-09-28T21:54:08.226Z,84.00
2022-09-28T21:56:36.503Z,84.30
2022-09-28T21:59:04.820Z,84.50
2022-09-28T22:01:33.141Z,84.70
2022-09-28T22:04:01.699Z,84.90
2022-09-28T22:06:31.354Z,85.00
2022-09-28T22:08:59.620Z,85.50
2022-09-28T22:11:29.498Z,85.60
2022-09-28T22:14:00.079Z,85.60
2022-09-28T22:16:31.230Z,85.70
2022-09-28T22:19:00.113Z,85.80
2022-09-28T22:21:31.925Z,85.80
2022-09-28T22:24:02.030Z,85.90
2022-09-28T22:26:31.850Z,86.20
2022-09-28T22:29:01.581Z,86.60
2022-09-28T22:31:32.301Z,86.60
2022-09-28T22:34:00.806Z,86.80
2022-09-28T22:36:31.107Z,86.70
2022-09-28T22:39:00.437Z,86.70
2022-09-28T22:41:29.040Z,86.80
2022-09-28T22:43:57.549Z,86.90
2022-09-28T22:46:27.486Z,86.90
2022-09-28T22:48:57.885Z,86.90
2022-09-28T22:51:30.016Z,87.10
2022-09-28T22:54:00.122Z,86.90
2022-09-28T22:56:28.625Z,87.10
2022-09-28T22:58:56.943Z,87.10
2022-09-28T23:01:27.588Z,87.20
2022-09-28T23:03:57.221Z,87.40
2022-09-28T23:06:27.182Z,87.40
2022-09-28T23:08:55.511Z,87.60
2022-09-28T23:11:25.213Z,87.90
2022-09-28T23:13:54.464Z,87.80
2022-09-28T23:16:25.700Z,87.70
2022-09-28T23:18:54.760Z,87.70
2022-09-28T23:21:25.025Z,87.70
2022-09-28T23:23:55.299Z,87.70
2022-09-28T23:26:27.913Z,87.60
2022-09-28T23:28:56.756Z,87.50
2022-09-28T23:31:28.067Z,87.50
2022-09-28T23:33:59.696Z,87.40
2022-09-28T23:36:28.123Z,87.50
2022-09-28T23:38:58.093Z,87.40
2022-09-28T23:41:27.795Z,87.50
2022-09-28T23:43:56.021Z,87.70
2022-09-28T23:46:24.600Z,87.70
2022-09-28T23:48:53.016Z,87.70
2022-09-28T23:51:21.216Z,87.70
2022-09-28T23:53:49.423Z,87.60
2022-09-28T23:56:17.691Z,87.60
2022-09-28T23:58:47.324Z,87.50
